createdAt,value
2022-12-03T00:02:31.886Z,8.77
2022-12-03T00:05:17.474Z,9.05
2022-12-03T00:08:03.079Z,9.52
2022-12-03T00:10:48.703Z,9.73
2022-12-03T00:13:34.380Z,9.32
2022-12-03T00:16:20.084Z,9.18
2022-12-03T00:19:07.615Z,8.77
2022-12-03T00:21:52.891Z,8.05
2022-12-03T00:24:38.534Z,9.55
2022-12-03T00:27:24.040Z,8.23
2022-12-03T00:30:10.615Z,8.32
2022-12-03T00:32:55.787Z,8.40
2022-12-03T00:35:42.368Z,7.72
2022-12-03T00:38:27.775Z,8.00
2022-12-03T00:41:13.208Z,8.00
2022-12-03T00:43:59.435Z,7.55
2022-12-03T00:46:45.536Z,7.13
2022-12-03T00:49:30.847Z,7.55
2022-12-03T00:52:16.380Z,6.38
2022-12-03T00:55:01.953Z,7.47
2022-12-03T00:57:47.808Z,8.35
2022-12-03T01:00:33.316Z,7.85
2022-12-03T01:03:18.832Z,7.05
2022-12-03T01:06:04.504Z,9.05
2022-12-03T01:08:49.683Z,8.93
2022-12-03T01:11:37.881Z,9.48
2022-12-03T01:14:23.354Z,8.05
2022-12-03T01:17:08.943Z,8.38
2022-12-03T01:19:54.221Z,8.90
2022-12-03T01:22:39.645Z,8.55
2022-12-03T01:25:25.215Z,8.32
2022-12-03T01:28:10.749Z,8.90
2022-12-03T01:31:14.852Z,9.52
2022-12-03T01:34:00.739Z,8.68
2022-12-03T01:36:46.160Z,8.23
2022-12-03T01:39:31.998Z,8.70
2022-12-03T01:42:30.497Z,9.80
2022-12-03T01:45:23.921Z,9.27
2022-12-03T01:48:13.598Z,9.82
2022-12-03T01:50:59.142Z,10.60
2022-12-03T01:53:45.586Z,9.50
2022-12-03T01:56:30.937Z,9.90
2022-12-03T01:59:19.549Z,11.80
2022-12-03T02:02:34.753Z,11.00
2022-12-03T02:05:23.491Z,10.93
2022-12-03T02:08:35.612Z,10.23
2022-12-03T02:11:36.293Z,11.32
2022-12-03T02:14:22.343Z,10.27
2022-12-03T02:17:07.824Z,10.50
2022-12-03T02:19:54.156Z,10.82
2022-12-03T02:22:48.987Z,9.88
2022-12-03T02:25:36.751Z,9.90
2022-12-03T02:28:22.369Z,11.18
2022-12-03T02:31:07.748Z,10.93
2022-12-03T02:33:53.344Z,10.95
2022-12-03T02:36:39.762Z,12.50
2022-12-03T02:39:26.800Z,10.18
2022-12-03T02:42:31.742Z,10.85
2022-12-03T02:45:22.162Z,10.90
2022-12-03T02:48:16.355Z,10.57
2022-12-03T02:51:06.262Z,9.02
2022-12-03T02:53:54.904Z,9.68
2022-12-03T02:56:40.593Z,8.95
2022-12-03T02:59:26.292Z,9.68
2022-12-03T03:02:14.282Z,9.30
2022-12-03T03:06:18.089Z,7.85
2022-12-03T03:09:04.352Z,9.25
2022-12-03T03:11:50.001Z,9.05
2022-12-03T03:14:36.028Z,8.35
2022-12-03T03:17:21.926Z,7.75
2022-12-03T03:20:08.320Z,8.35
2022-12-03T03:22:53.668Z,8.48
2022-12-03T03:25:42.452Z,8.95
2022-12-03T03:28:29.837Z,7.53
2022-12-03T03:31:17.976Z,7.80
2022-12-03T03:34:03.586Z,8.77
2022-12-03T03:36:49.335Z,7.78
2022-12-03T03:39:35.321Z,7.10
2022-12-03T03:42:21.127Z,7.57
2022-12-03T03:45:08.360Z,7.32
2022-12-03T03:47:55.436Z,8.50
2022-12-03T03:50:42.217Z,7.85
2022-12-03T03:53:27.797Z,7.63
2022-12-03T03:56:14.135Z,7.10
2022-12-03T03:58:59.805Z,7.93
2022-12-03T04:01:46.146Z,6.47
2022-12-03T04:04:35.021Z,7.05
2022-12-03T04:07:20.565Z,6.70
2022-12-03T04:10:26.680Z,6.93
2022-12-03T04:13:12.368Z,6.80
2022-12-03T04:15:58.123Z,6.78
2022-12-03T04:18:43.776Z,7.45
2022-12-03T04:21:47.764Z,8.25
2022-12-03T04:24:33.213Z,7.28
2022-12-03T04:27:36.847Z,8.73
2022-12-03T04:33:26.037Z,9.20
2022-12-03T04:36:11.762Z,8.20
2022-12-03T04:38:57.188Z,8.77
2022-12-03T04:41:42.783Z,7.80
2022-12-03T04:44:33.799Z,8.80
2022-12-03T04:47:21.282Z,9.90
2022-12-03T04:50:07.601Z,10.30
2022-12-03T04:52:52.749Z,9.73
2022-12-03T04:55:38.441Z,9.48
2022-12-03T04:58:23.561Z,9.80
2022-12-03T05:01:09.075Z,9.52
2022-12-03T05:03:54.592Z,12.20
2022-12-03T05:06:40.685Z,10.18
2022-12-03T05:09:26.387Z,11.63
2022-12-03T05:12:11.988Z,11.82
2022-12-03T05:14:57.342Z,12.23
2022-12-03T05:17:43.027Z,13.25
2022-12-03T05:20:48.369Z,12.38
2022-12-03T05:23:38.665Z,12.43
2022-12-03T05:26:24.479Z,10.57
2022-12-03T05:29:09.733Z,12.68
2022-12-03T05:31:55.124Z,11.80
2022-12-03T05:34:40.741Z,12.68
2022-12-03T05:37:26.076Z,11.65
2022-12-03T05:40:12.669Z,12.63
2022-12-03T05:42:58.130Z,13.65
2022-12-03T05:45:44.568Z,12.20
2022-12-03T05:48:29.922Z,13.82
2022-12-03T05:51:15.661Z,12.35
2022-12-03T05:54:01.088Z,12.70
2022-12-03T05:56:46.973Z,12.73
2022-12-03T05:59:32.873Z,12.02
2022-12-03T06:02:18.553Z,12.02
2022-12-03T06:05:04.444Z,12.50
2022-12-03T06:07:52.584Z,11.95
2022-12-03T06:10:37.912Z,11.02
2022-12-03T06:13:23.437Z,11.65
2022-12-03T06:16:08.945Z,11.43
2022-12-03T06:18:54.494Z,12.85
2022-12-03T06:21:40.099Z,10.90
2022-12-03T06:24:25.805Z,10.48
2022-12-03T06:27:11.625Z,9.50
2022-12-03T06:29:57.211Z,9.13
2022-12-03T06:32:42.844Z,10.02
2022-12-03T06:35:28.215Z,10.52
2022-12-03T06:38:14.405Z,10.32
2022-12-03T06:41:00.193Z,10.52
2022-12-03T06:43:45.786Z,10.65
2022-12-03T06:46:31.415Z,10.20
2022-12-03T06:49:17.048Z,10.20
2022-12-03T06:52:02.931Z,9.15
2022-12-03T06:54:48.792Z,10.00
2022-12-03T06:57:34.745Z,9.52
2022-12-03T07:00:20.764Z,9.68
2022-12-03T07:03:06.636Z,9.98
2022-12-03T07:05:53.397Z,9.50
2022-12-03T07:08:38.997Z,9.18
2022-12-03T07:11:39.604Z,10.57
2022-12-03T07:14:25.307Z,10.00
2022-12-03T07:17:10.917Z,10.40
2022-12-03T07:19:56.504Z,9.07
2022-12-03T07:22:42.217Z,8.93
2022-12-03T07:25:27.616Z,8.48
2022-12-03T07:28:12.677Z,8.68
2022-12-03T07:30:58.197Z,10.82
2022-12-03T07:33:43.678Z,7.97
2022-12-03T07:36:30.164Z,7.13
2022-12-03T07:39:15.767Z,7.93
2022-12-03T07:42:02.205Z,9.18
2022-12-03T07:44:48.029Z,7.88
2022-12-03T07:47:33.978Z,8.48
2022-12-03T07:50:19.511Z,9.25
2022-12-03T07:53:05.757Z,7.30
2022-12-03T07:55:51.799Z,8.82
2022-12-03T07:58:37.429Z,7.65
2022-12-03T08:01:23.358Z,8.02
2022-12-03T08:04:09.278Z,7.85
2022-12-03T08:06:55.021Z,8.27
2022-12-03T08:09:41.705Z,7.43
2022-12-03T08:12:41.635Z,7.85
2022-12-03T08:15:33.812Z,8.27
2022-12-03T08:18:24.635Z,7.80
2022-12-03T08:21:12.299Z,7.80
2022-12-03T08:23:58.252Z,7.43
2022-12-03T08:26:46.524Z,6.72
2022-12-03T08:29:31.856Z,7.25
2022-12-03T08:32:17.682Z,6.63
2022-12-03T08:35:30.543Z,6.97
2022-12-03T08:38:16.405Z,6.68
2022-12-03T08:41:01.701Z,5.90
2022-12-03T08:43:47.113Z,7.55
2022-12-03T08:46:32.999Z,6.30
2022-12-03T08:49:20.887Z,6.30
2022-12-03T08:52:16.974Z,7.22
2022-12-03T08:55:35.826Z,7.78
2022-12-03T08:58:36.557Z,6.15
2022-12-03T09:01:42.408Z,6.38
2022-12-03T09:04:39.617Z,6.75
2022-12-03T09:07:27.135Z,6.20
2022-12-03T09:10:13.484Z,7.20
2022-12-03T09:12:59.374Z,5.55
2022-12-03T09:15:45.080Z,6.55
2022-12-03T09:18:31.332Z,6.30
2022-12-03T09:21:19.702Z,6.75
2022-12-03T09:24:05.616Z,6.15
2022-12-03T09:26:51.735Z,5.43
2022-12-03T09:29:38.110Z,6.25
2022-12-03T09:32:24.112Z,6.13
2022-12-03T09:35:10.408Z,6.47
2022-12-03T09:38:00.795Z,5.68
2022-12-03T09:40:46.215Z,4.88
2022-12-03T09:44:02.840Z,5.95
2022-12-03T09:46:41.097Z,6.20
2022-12-03T09:49:27.629Z,5.47
2022-12-03T09:52:21.693Z,5.45
2022-12-03T09:55:21.107Z,5.53
2022-12-03T09:58:12.610Z,5.28
2022-12-03T10:00:58.029Z,6.28
2022-12-03T10:03:49.313Z,5.30
2022-12-03T10:06:35.246Z,5.65
2022-12-03T10:09:26.904Z,6.22
2022-12-03T10:12:13.816Z,5.38
2022-12-03T10:14:59.258Z,5.05
2022-12-03T10:17:47.741Z,5.28
2022-12-03T10:20:33.222Z,5.53
2022-12-03T10:23:24.649Z,4.95
2022-12-03T10:26:10.290Z,5.00
2022-12-03T10:28:56.917Z,5.07
2022-12-03T10:31:42.252Z,5.65
2022-12-03T10:34:33.535Z,5.15
2022-12-03T10:37:22.928Z,5.28
2022-12-03T10:40:11.609Z,5.07
2022-12-03T10:43:16.006Z,5.47
2022-12-03T10:46:04.239Z,4.70
2022-12-03T10:49:18.382Z,5.20
2022-12-03T10:52:04.199Z,5.55
2022-12-03T10:54:50.563Z,5.38
2022-12-03T10:57:35.976Z,5.10
2022-12-03T11:00:22.756Z,5.18
2022-12-03T11:03:21.676Z,5.30
2022-12-03T11:06:13.239Z,4.55
2022-12-03T11:09:02.691Z,5.20
2022-12-03T11:11:53.372Z,4.78
2022-12-03T11:14:51.624Z,5.15
2022-12-03T11:17:50.463Z,4.57
2022-12-03T11:20:36.091Z,4.70
2022-12-03T11:23:44.259Z,5.63
2022-12-03T11:26:29.427Z,5.85
2022-12-03T11:29:15.277Z,5.22
2022-12-03T11:32:00.377Z,5.15
2022-12-03T11:34:46.074Z,5.03
2022-12-03T11:37:31.521Z,5.00
2022-12-03T11:40:16.882Z,5.03
2022-12-03T11:43:02.403Z,5.50
2022-12-03T11:45:48.038Z,5.15
2022-12-03T11:48:33.912Z,5.32
2022-12-03T11:51:22.843Z,4.70
2022-12-03T11:54:16.337Z,5.57
2022-12-03T11:57:02.709Z,5.60
2022-12-03T12:00:24.385Z,5.50
2022-12-03T12:03:23.010Z,5.25
2022-12-03T12:06:10.810Z,5.13
2022-12-03T12:08:58.943Z,5.75
2022-12-03T12:11:44.553Z,5.25
2022-12-03T12:14:30.705Z,5.55
2022-12-03T12:17:30.360Z,5.32
2022-12-03T12:20:34.125Z,6.03
2022-12-03T12:23:28.961Z,5.88
2022-12-03T12:26:14.352Z,5.45
2022-12-03T12:28:59.784Z,6.70
2022-12-03T12:31:48.266Z,6.72
2022-12-03T12:34:50.002Z,6.63
2022-12-03T12:37:47.359Z,6.03
2022-12-03T12:40:36.561Z,6.47
2022-12-03T12:43:30.831Z,7.47
2022-12-03T12:46:46.683Z,7.22
2022-12-03T12:49:26.808Z,7.35
2022-12-03T12:52:14.664Z,6.82
2022-12-03T12:55:04.717Z,6.95
2022-12-03T12:57:51.320Z,7.75
2022-12-03T13:00:37.209Z,7.43
2022-12-03T13:03:26.004Z,7.32
2022-12-03T13:06:15.847Z,10.10
2022-12-03T13:09:01.267Z,8.70
2022-12-03T13:11:58.492Z,10.73
2022-12-03T13:14:43.657Z,9.73
2022-12-03T13:17:29.584Z,9.80
2022-12-03T13:20:19.951Z,9.77
2022-12-03T13:23:33.007Z,9.18
2022-12-03T13:26:39.030Z,9.63
2022-12-03T13:29:27.069Z,9.77
2022-12-03T13:32:23.753Z,9.48
2022-12-03T13:35:30.826Z,10.48
2022-12-03T13:38:17.415Z,10.73
2022-12-03T13:41:06.964Z,10.73
2022-12-03T13:43:53.241Z,9.40
2022-12-03T13:46:39.645Z,10.13
2022-12-03T13:49:25.166Z,11.05
2022-12-03T13:52:15.982Z,11.00
2022-12-03T13:55:03.557Z,9.88
2022-12-03T13:57:48.849Z,12.80
2022-12-03T14:00:35.048Z,11.65
2022-12-03T14:03:21.003Z,11.38
2022-12-03T14:06:06.901Z,11.85
2022-12-03T14:08:52.253Z,10.65
2022-12-03T14:11:56.012Z,11.68
2022-12-03T14:14:41.328Z,12.43
2022-12-03T14:17:26.918Z,11.30
2022-12-03T14:20:12.418Z,10.25
2022-12-03T14:22:59.682Z,11.15
2022-12-03T14:25:45.581Z,12.45
2022-12-03T14:28:30.839Z,11.27
2022-12-03T14:31:16.342Z,11.18
2022-12-03T14:34:01.660Z,10.85
2022-12-03T14:36:47.122Z,12.05
2022-12-03T14:39:32.780Z,12.60
2022-12-03T14:42:18.385Z,12.20
2022-12-03T14:45:04.600Z,11.90
2022-12-03T14:47:49.964Z,11.07
2022-12-03T14:50:35.485Z,11.90
2022-12-03T14:53:26.916Z,11.73
2022-12-03T14:56:12.945Z,11.40
2022-12-03T14:58:58.589Z,11.60
2022-12-03T15:01:44.007Z,11.23
2022-12-03T15:04:29.744Z,11.48
2022-12-03T15:07:15.457Z,12.00
2022-12-03T15:10:01.157Z,12.20
2022-12-03T15:12:46.655Z,12.32
2022-12-03T15:15:32.301Z,13.27
2022-12-03T15:18:18.648Z,14.02
2022-12-03T15:21:04.560Z,11.93
2022-12-03T15:23:50.630Z,12.05
2022-12-03T15:26:36.540Z,12.82
2022-12-03T15:29:22.250Z,11.75
2022-12-03T15:32:07.491Z,11.35
2022-12-03T15:34:53.138Z,12.23
2022-12-03T15:37:38.797Z,12.10
2022-12-03T15:40:24.791Z,12.10
2022-12-03T15:43:10.688Z,12.43
2022-12-03T15:45:56.347Z,12.40
2022-12-03T15:48:42.028Z,12.68
2022-12-03T15:51:27.527Z,11.45
2022-12-03T15:54:12.955Z,13.93
2022-12-03T15:56:58.819Z,11.90
2022-12-03T15:59:44.514Z,12.93
2022-12-03T16:02:33.962Z,13.13
2022-12-03T16:05:20.037Z,12.30
2022-12-03T16:08:05.668Z,11.52
2022-12-03T16:10:51.682Z,14.35
2022-12-03T16:13:37.036Z,13.40
2022-12-03T16:16:22.458Z,14.05
2022-12-03T16:19:07.915Z,13.90
2022-12-03T16:21:53.816Z,12.75
2022-12-03T16:24:39.667Z,13.85
2022-12-03T16:27:26.057Z,13.55
2022-12-03T16:30:12.350Z,13.73
2022-12-03T16:32:57.788Z,15.38
2022-12-03T16:35:43.485Z,14.73
2022-12-03T16:38:28.873Z,14.82
2022-12-03T16:41:14.347Z,16.00
2022-12-03T16:44:02.802Z,16.95
2022-12-03T16:46:48.471Z,13.52
2022-12-03T16:49:34.195Z,15.13
2022-12-03T16:52:19.677Z,15.50
2022-12-03T16:55:05.685Z,15.07
2022-12-03T16:57:51.455Z,14.07
2022-12-03T17:00:36.698Z,15.50
2022-12-03T17:03:23.012Z,15.73
2022-12-03T17:06:09.024Z,14.15
2022-12-03T17:08:54.446Z,15.68
2022-12-03T17:11:40.006Z,15.40
2022-12-03T17:14:29.990Z,15.70
2022-12-03T17:17:18.462Z,17.02
2022-12-03T17:20:06.281Z,16.60
2022-12-03T17:22:51.884Z,16.05
2022-12-03T17:25:37.575Z,13.90
2022-12-03T17:28:23.139Z,14.55
2022-12-03T17:31:08.798Z,14.57
2022-12-03T17:33:57.396Z,14.10
2022-12-03T17:36:43.301Z,14.25
2022-12-03T17:39:28.866Z,14.48
2022-12-03T17:42:14.452Z,14.27
2022-12-03T17:45:00.075Z,14.55
2022-12-03T17:47:45.505Z,16.17
2022-12-03T17:50:31.096Z,13.45
2022-12-03T17:53:16.584Z,13.43
2022-12-03T17:56:02.202Z,14.93
2022-12-03T17:58:47.822Z,13.07
2022-12-03T18:01:33.340Z,14.95
2022-12-03T18:04:18.923Z,15.30
2022-12-03T18:07:04.570Z,13.68
2022-12-03T18:09:50.073Z,13.63
2022-12-03T18:12:35.922Z,13.48
2022-12-03T18:15:21.169Z,14.93
2022-12-03T18:18:07.131Z,15.15
2022-12-03T18:20:53.590Z,16.00
2022-12-03T18:23:39.395Z,14.52
2022-12-03T18:26:24.721Z,15.88
2022-12-03T18:29:10.197Z,18.70
2022-12-03T18:31:55.716Z,15.07
2022-12-03T18:34:42.699Z,16.27
2022-12-03T18:37:33.108Z,15.05
2022-12-03T18:40:25.530Z,16.73
2022-12-03T18:43:16.056Z,15.07
2022-12-03T18:46:01.655Z,16.65
2022-12-03T18:48:48.969Z,15.98
2022-12-03T18:51:34.344Z,16.10
2022-12-03T18:54:19.941Z,16.45
2022-12-03T18:57:05.903Z,16.67
2022-12-03T18:59:51.678Z,18.38
2022-12-03T19:05:42.436Z,17.73
2022-12-03T19:08:29.280Z,17.10
2022-12-03T19:11:14.753Z,16.70
2022-12-03T19:14:00.487Z,16.02
2022-12-03T19:16:46.913Z,17.13
2022-12-03T19:19:32.500Z,18.15
2022-12-03T19:22:18.412Z,17.77
2022-12-03T19:25:04.277Z,16.70
2022-12-03T19:27:50.765Z,17.88
2022-12-03T19:30:36.129Z,16.98
2022-12-03T19:33:26.798Z,17.10
2022-12-03T19:36:29.249Z,15.40
2022-12-03T19:39:14.544Z,15.85
2022-12-03T19:42:00.070Z,16.20
2022-12-03T19:44:45.481Z,16.77
2022-12-03T19:47:32.999Z,16.15
2022-12-03T19:50:22.931Z,15.27
2022-12-03T19:53:08.996Z,15.23
2022-12-03T19:55:55.128Z,14.43
2022-12-03T19:58:47.568Z,14.60
2022-12-03T20:01:35.398Z,14.30
2022-12-03T20:04:20.960Z,14.63
2022-12-03T20:07:12.442Z,14.35
2022-12-03T20:09:59.269Z,13.50
2022-12-03T20:12:45.354Z,14.73
2022-12-03T20:15:32.062Z,14.85
2022-12-03T20:18:19.273Z,13.38
2022-12-03T20:21:05.189Z,13.38
2022-12-03T20:23:51.276Z,13.43
2022-12-03T20:26:37.460Z,13.45
2022-12-03T20:29:23.017Z,14.23
2022-12-03T20:32:08.844Z,12.55
2022-12-03T20:34:54.113Z,13.07
2022-12-03T20:37:40.113Z,12.70
2022-12-03T20:40:25.677Z,13.20
2022-12-03T20:43:11.772Z,13.77
2022-12-03T20:46:02.580Z,14.30
2022-12-03T20:48:49.134Z,13.68
2022-12-03T20:51:35.269Z,15.27
2022-12-03T20:54:20.605Z,14.85
2022-12-03T20:57:06.040Z,15.35
2022-12-03T20:59:51.922Z,15.20
2022-12-03T21:02:38.523Z,15.23
2022-12-03T21:05:24.249Z,16.75
2022-12-03T21:08:10.741Z,14.93
2022-12-03T21:10:56.537Z,14.32
2022-12-03T21:13:43.468Z,15.15
2022-12-03T21:17:06.467Z,14.10
2022-12-03T21:19:38.760Z,14.00
2022-12-03T21:22:24.451Z,16.23
2022-12-03T21:25:10.702Z,12.93
2022-12-03T21:27:56.221Z,14.18
2022-12-03T21:30:42.388Z,13.20
2022-12-03T21:33:28.468Z,12.90
2022-12-03T21:36:16.864Z,14.20
2022-12-03T21:39:03.630Z,14.35
2022-12-03T21:42:18.822Z,15.20
2022-12-03T21:44:54.578Z,14.13
2022-12-03T21:47:40.495Z,14.93
2022-12-03T21:50:26.126Z,13.82
2022-12-03T21:53:11.767Z,13.65
2022-12-03T21:55:57.188Z,15.50
2022-12-03T21:58:43.645Z,14.93
2022-12-03T22:01:29.290Z,14.55
2022-12-03T22:04:14.581Z,14.85
2022-12-03T22:07:00.347Z,13.85
2022-12-03T22:09:45.677Z,13.75
2022-12-03T22:12:31.480Z,15.52
2022-12-03T22:15:19.608Z,15.60
2022-12-03T22:18:06.219Z,13.65
2022-12-03T22:20:51.839Z,15.73
2022-12-03T22:23:37.931Z,15.10
2022-12-03T22:26:23.594Z,15.45
2022-12-03T22:29:11.324Z,16.25
2022-12-03T22:31:57.044Z,14.98
2022-12-03T22:34:42.593Z,16.25
2022-12-03T22:37:28.188Z,15.45
2022-12-03T22:40:14.080Z,15.52
2022-12-03T22:42:59.804Z,16.23
2022-12-03T22:45:45.566Z,17.13
2022-12-03T22:48:37.202Z,16.00
2022-12-03T22:51:25.619Z,15.38
2022-12-03T22:54:11.529Z,15.30
2022-12-03T22:56:57.201Z,16.85
2022-12-03T22:59:42.704Z,16.13
2022-12-03T23:02:28.391Z,14.38
2022-12-03T23:05:13.867Z,15.18
2022-12-03T23:07:59.447Z,16.67
2022-12-03T23:10:47.717Z,16.80
2022-12-03T23:13:33.222Z,17.00
2022-12-03T23:16:24.917Z,15.85
2022-12-03T23:19:10.366Z,15.70
2022-12-03T23:21:55.723Z,16.90
2022-12-03T23:24:41.274Z,13.25
2022-12-03T23:27:27.894Z,14.98
2022-12-03T23:30:15.400Z,14.25
2022-12-03T23:33:10.496Z,14.80
2022-12-03T23:35:56.685Z,15.80
2022-12-03T23:38:42.950Z,16.08
2022-12-03T23:41:28.836Z,14.15
2022-12-03T23:44:14.561Z,15.13
2022-12-03T23:47:01.123Z,14.93
2022-12-03T23:49:46.756Z,14.05
2022-12-03T23:52:32.237Z,15.68
2022-12-03T23:55:17.911Z,15.55
2022-12-03T23:58:03.447Z,14.95
